Time;durP1;ratioP1;P1;durP2;ratioP2;P2;SDS_P1;SDS_P2;PMS_P1;PMS_P2;Temp;Humidity;BMP_temperature;BMP_pressure;BME280_temperature;BME280_humidity;BME280_pressure;Samples;Min_cycle;Max_cycle;Signal;HPM_P1;HPM_P2
2023/03/20 00:00:20;;;;;;;3.63;3.13;;;;;;;10.39;100.00;96495.47;5028621;28;101934;-63
2023/03/20 00:02:46;;;;;;;3.67;3.30;;;;;;;10.27;100.00;96500.09;5020228;28;105130;-63
2023/03/20 00:05:20;;;;;;;3.20;3.00;;;;;;;10.30;100.00;96502.25;5009984;28;102522;-63
2023/03/20 00:07:49;;;;;;;3.80;3.03;;;;;;;10.30;100.00;96501.47;5017261;28;102201;-63
2023/03/20 00:10:18;;;;;;;3.37;3.07;;;;;;;10.28;100.00;96506.19;5028486;28;105319;-63
2023/03/20 00:12:47;;;;;;;3.70;3.40;;;;;;;10.25;100.00;96506.72;5031065;28;105547;-63
2023/03/20 00:15:26;;;;;;;3.43;3.13;;;;;;;10.21;100.00;96501.09;5030327;27;102824;-63
2023/03/20 00:17:54;;;;;;;3.67;3.37;;;;;;;10.28;100.00;96507.03;5014803;28;105933;-63
2023/03/20 00:20:21;;;;;;;5.03;3.60;;;;;;;10.30;100.00;96493.50;5010465;28;101700;-63
2023/03/20 00:22:50;;;;;;;3.10;2.90;;;;;;;10.28;100.00;96500.88;5021406;28;102458;-63
2023/03/20 00:25:20;;;;;;;4.13;3.10;;;;;;;10.18;100.00;96503.41;5028175;28;105428;-63
2023/03/20 00:27:47;;;;;;;4.03;3.63;;;;;;;10.19;100.00;96500.50;5018408;27;101962;-63
2023/03/20 00:30:21;;;;;;;4.50;3.70;;;;;;;10.18;100.00;96495.44;5024382;28;102903;-63
2023/03/20 00:32:49;;;;;;;3.90;3.53;;;;;;;10.15;100.00;96501.25;5027625;28;105278;-63
2023/03/20 00:35:23;;;;;;;3.90;3.50;;;;;;;10.11;100.00;96508.09;5014905;28;101940;-63
2023/03/20 00:37:53;;;;;;;4.03;3.63;;;;;;;10.10;100.00;96504.66;5009227;28;102872;-63
2023/03/20 00:40:21;;;;;;;8.17;3.60;;;;;;;10.10;100.00;96504.66;5025994;28;101983;-63
2023/03/20 00:42:51;;;;;;;5.27;3.70;;;;;;;10.09;100.00;96504.88;5028477;28;105597;-64
2023/03/20 00:45:20;;;;;;;4.20;3.80;;;;;;;10.10;100.00;96509.16;5027674;28;105806;-63
2023/03/20 00:47:50;;;;;;;4.50;3.43;;;;;;;10.15;100.00;96506.56;5029786;28;101891;-63
2023/03/20 00:50:20;;;;;;;4.43;4.03;;;;;;;10.13;100.00;96511.31;5028278;28;103564;-63
2023/03/20 00:52:48;;;;;;;6.23;4.03;;;;;;;10.01;100.00;96505.25;5027187;28;105762;-63
2023/03/20 00:55:17;;;;;;;4.10;3.70;;;;;;;9.88;100.00;96505.59;5016195;27;102043;-63
2023/03/20 00:57:48;;;;;;;4.30;3.90;;;;;;;9.88;100.00;96501.06;5011167;28;105188;-63
2023/03/20 01:00:37;;;;;;;4.23;3.80;;;;;;;9.89;100.00;96505.38;5008133;28;101895;-64
2023/03/20 01:03:11;;;;;;;4.83;3.87;;;;;;;9.92;100.00;96501.41;5008198;28;105384;-63
2023/03/20 01:05:39;;;;;;;4.73;3.80;;;;;;;9.90;100.00;96506.16;5009299;28;102998;-63
2023/03/20 01:08:10;;;;;;;4.00;3.70;;;;;;;9.92;100.00;96504.06;5008432;28;101932;-63
2023/03/20 01:10:39;;;;;;;4.23;3.83;;;;;;;9.88;100.00;96497.63;5008084;28;105090;-63
2023/03/20 01:13:13;;;;;;;4.00;3.70;;;;;;;9.88;100.00;96505.59;5007708;28;105608;-64
2023/03/20 01:15:40;;;;;;;4.97;3.43;;;;;;;9.83;100.00;96500.22;5009768;28;101835;-63
2023/03/20 01:18:09;;;;;;;3.60;3.30;;;;;;;9.73;100.00;96502.69;5025299;28;105408;-63
2023/03/20 01:20:38;;;;;;;4.10;3.80;;;;;;;9.74;100.00;96501.66;5030518;28;101771;-63
2023/03/20 01:23:05;;;;;;;4.27;3.63;;;;;;;9.67;100.00;96504.50;5026147;28;104246;-63
2023/03/20 01:25:32;;;;;;;4.73;3.60;;;;;;;9.64;100.00;96499.66;5009439;28;101912;-63
2023/03/20 01:28:01;;;;;;;4.60;3.93;;;;;;;9.72;100.00;96498.44;5011457;28;102085;-63
2023/03/20 01:30:30;;;;;;;4.33;3.93;;;;;;;9.72;100.00;96499.25;5010983;28;105379;-64
2023/03/20 01:32:57;;;;;;;3.70;3.40;;;;;;;9.65;100.00;96495.16;5011937;28;105697;-63
2023/03/20 01:35:27;;;;;;;4.87;3.90;;;;;;;9.73;100.00;96500.03;5031381;28;101793;-63
2023/03/20 01:37:56;;;;;;;4.30;3.90;;;;;;;9.65;100.00;96500.47;5031260;28;103472;-63
2023/03/20 01:40:32;;;;;;;3.93;3.67;;;;;;;9.67;100.00;96498.38;5030430;28;105406;-63
2023/03/20 01:43:02;;;;;;;4.47;4.07;;;;;;;9.74;100.00;96499.81;5030931;28;105224;-63
2023/03/20 01:45:34;;;;;;;4.57;4.17;;;;;;;9.67;100.00;96504.50;5010446;28;103817;-63
2023/03/20 01:48:12;;;;;;;4.00;3.60;;;;;;;9.74;100.00;96505.13;5010932;28;102528;-63
2023/03/20 01:50:39;;;;;;;4.30;3.90;;;;;;;9.76;100.00;96503.03;5024454;28;104904;-64
2023/03/20 01:53:15;;;;;;;5.27;4.30;;;;;;;9.75;100.00;96500.63;4992371;28;105428;-63
2023/03/20 01:55:50;;;;;;;3.80;3.50;;;;;;;9.74;100.00;96504.31;5010912;28;101830;-64
2023/03/20 01:58:24;;;;;;;3.67;3.40;;;;;;;9.76;100.00;96496.91;5010911;28;104686;-63
2023/03/20 02:00:52;;;;;;;4.80;3.90;;;;;;;9.78;100.00;96497.47;5011803;28;105588;-63
2023/03/20 02:03:22;;;;;;;4.57;4.17;;;;;;;9.76;100.00;96502.22;5034333;28;101873;-63
2023/03/20 02:06:08;;;;;;;4.00;3.60;;;;;;;9.77;100.00;96501.19;5027745;28;102226;-63
2023/03/20 02:09:01;;;;;;;4.30;3.90;;;;;;;9.78;100.00;96500.13;5029658;28;101823;-63
2023/03/20 02:11:34;;;;;;;4.30;3.80;;;;;;;9.78;100.00;96495.63;5029072;28;104153;-63
2023/03/20 02:14:04;;;;;;;4.07;3.67;;;;;;;9.82;100.00;96496.75;5031495;27;102580;-63
2023/03/20 02:16:40;;;;;;;4.37;3.67;;;;;;;9.73;100.00;96498.22;5028836;28;101773;-63
2023/03/20 02:19:23;;;;;;;5.37;4.20;;;;;;;9.66;100.00;96502.06;5030132;28;105535;-63
2023/03/20 02:22:23;;;;;;;4.00;3.67;;;;;;;9.65;100.00;96503.13;5029673;28;105334;-63
2023/03/20 02:25:28;;;;;;;3.97;3.60;;;;;;;9.66;100.00;96507.38;5030383;28;101991;-64
2023/03/20 02:28:33;;;;;;;4.20;3.80;;;;;;;9.67;100.00;96503.66;5032594;28;105467;-64
2023/03/20 02:31:30;;;;;;;5.37;4.37;;;;;;;9.57;100.00;96500.84;5023634;28;101942;-63
2023/03/20 02:34:37;;;;;;;4.50;4.10;;;;;;;9.52;100.00;96500.75;5012155;28;104811;-63
2023/03/20 02:37:43;;;;;;;4.53;4.13;;;;;;;9.57;100.00;96498.19;5011755;28;105446;-64
2023/03/20 02:40:22;;;;;;;5.17;4.67;;;;;;;9.55;100.00;96497.66;4996487;28;102024;-64
2023/03/20 02:42:58;;;;;;;4.53;4.13;;;;;;;9.59;100.00;96501.44;5011407;28;102334;-63
2023/03/20 02:45:28;;;;;;;4.87;4.47;;;;;;;9.63;100.00;96499.88;5009791;28;105359;-63
2023/03/20 02:48:14;;;;;;;4.43;4.03;;;;;;;9.62;100.00;96496.44;5010151;28;102438;-63
2023/03/20 02:50:47;;;;;;;4.33;4.00;;;;;;;9.60;100.00;96495.06;5010076;28;105337;-63
2023/03/20 02:53:28;;;;;;;4.67;4.10;;;;;;;9.57;100.00;96492.88;5012555;28;105847;-63
2023/03/20 02:56:01;;;;;;;4.60;4.20;;;;;;;9.46;100.00;96501.72;5011646;28;102558;-63
2023/03/20 02:58:33;;;;;;;4.80;4.30;;;;;;;9.45;100.00;96500.13;5027897;28;105755;-63
2023/03/20 03:01:04;;;;;;;6.03;4.40;;;;;;;9.45;100.00;96498.28;5029953;28;101887;-63
2023/03/20 03:03:38;;;;;;;4.70;4.30;;;;;;;9.45;100.00;96500.13;5012425;28;104915;-63
2023/03/20 03:06:09;;;;;;;4.80;4.30;;;;;;;9.49;100.00;96496.75;5029429;28;105533;-64
2023/03/20 03:08:43;;;;;;;4.30;3.90;;;;;;;9.47;100.00;96498.03;5016989;28;102047;-63
2023/03/20 03:11:11;;;;;;;4.53;4.13;;;;;;;9.49;100.00;96507.34;4992976;28;105821;-64
2023/03/20 03:13:42;;;;;;;5.10;4.63;;;;;;;9.54;100.00;96504.78;5022444;28;104987;-63
2023/03/20 03:16:14;;;;;;;4.43;4.10;;;;;;;9.57;100.00;96498.19;4994907;28;101802;-64
2023/03/20 03:18:43;;;;;;;5.30;4.80;;;;;;;9.58;100.00;96505.09;5022521;28;105325;-63
2023/03/20 03:21:15;;;;;;;4.97;4.40;;;;;;;9.55;100.00;96497.66;5009808;28;102030;-63
2023/03/20 03:23:47;;;;;;;4.50;4.10;;;;;;;9.48;100.00;96499.66;5009568;28;103912;-63
2023/03/20 03:26:20;;;;;;;5.00;4.47;;;;;;;9.45;100.00;96505.44;5009066;28;105317;-63
2023/03/20 03:28:52;;;;;;;4.63;4.23;;;;;;;9.36;100.00;96504.22;5009235;28;101807;-63
2023/03/20 03:31:20;;;;;;;4.90;4.30;;;;;;;9.33;100.00;96504.69;5009286;28;105389;-63
2023/03/20 03:33:50;;;;;;;4.90;4.33;;;;;;;9.33;100.00;96508.16;5008886;28;105466;-63
2023/03/20 03:36:26;;;;;;;5.00;4.43;;;;;;;9.31;100.00;96510.25;5012898;28;101767;-63
2023/03/20 03:38:59;;;;;;;4.87;4.47;;;;;;;9.36;100.00;96514.81;5024749;28;105735;-63
2023/03/20 03:41:31;;;;;;;5.23;4.73;;;;;;;9.35;100.00;96510.56;5029425;28;101850;-64
2023/03/20 03:44:08;;;;;;;4.80;4.30;;;;;;;9.25;100.00;96511.19;5011813;28;105022;-63
2023/03/20 03:46:42;;;;;;;5.17;4.63;;;;;;;9.34;100.00;96514.28;5008553;28;105113;-64
2023/03/20 03:49:15;;;;;;;4.70;4.30;;;;;;;9.36;100.00;96514.81;5010128;28;101783;-63
2023/03/20 03:51:46;;;;;;;4.67;4.27;;;;;;;9.39;100.00;96520.44;5016977;28;105330;-63
2023/03/20 03:54:18;;;;;;;4.70;4.30;;;;;;;9.39;100.00;96512.50;5028584;28;105464;-63
2023/03/20 03:56:58;;;;;;;5.80;4.73;;;;;;;9.39;100.00;96517.00;5022951;28;101895;-63
2023/03/20 03:59:30;;;;;;;5.13;4.40;;;;;;;9.38;100.00;96516.19;5011669;28;105615;-63
2023/03/20 04:02:00;;;;;;;4.87;3.90;;;;;;;9.32;100.00;96511.84;5008943;28;101805;-63
2023/03/20 04:04:29;;;;;;;5.27;4.63;;;;;;;9.26;100.00;96525.28;5008754;28;105329;-63
2023/03/20 04:06:56;;;;;;;4.43;4.03;;;;;;;9.28;100.00;96525.84;5013829;28;105292;-63
2023/03/20 04:09:24;;;;;;;4.90;4.40;;;;;;;9.26;100.00;96533.25;5028760;28;101828;-63
2023/03/20 04:11:53;;;;;;;4.90;4.43;;;;;;;9.30;100.00;96532.53;5027397;28;105254;-63
2023/03/20 04:14:21;;;;;;;4.63;4.23;;;;;;;9.35;100.00;96532.63;5029361;27;103399;-63
2023/03/20 04:16:48;;;;;;;4.77;4.37;;;;;;;9.42;100.00;96533.25;5028776;28;101775;-63
2023/03/20 04:19:15;;;;;;;4.27;3.97;;;;;;;9.42;100.00;96540.41;5015065;28;104847;-63
2023/03/20 04:21:45;;;;;;;4.87;4.37;;;;;;;9.46;100.00;96542.38;5011653;28;106112;-63
2023/03/20 04:24:14;;;;;;;4.97;4.57;;;;;;;9.46;100.00;96536.22;5008635;28;105113;-63
2023/03/20 04:26:42;;;;;;;4.80;4.40;;;;;;;9.44;100.00;96543.66;5008255;28;105657;-63
2023/03/20 04:29:09;;;;;;;4.77;4.37;;;;;;;9.47;100.00;96546.63;5021318;28;102030;-63
2023/03/20 04:32:12;;;;;;;4.67;4.27;;;;;;;9.45;100.00;96551.38;5007208;28;102569;-64
2023/03/20 04:34:56;;;;;;;4.93;4.43;;;;;;;9.49;100.00;96552.50;5026326;28;105908;-63
2023/03/20 04:37:37;;;;;;;5.07;4.60;;;;;;;9.48;100.00;96550.09;5030622;27;101666;-63
2023/03/20 04:40:08;;;;;;;6.00;5.03;;;;;;;9.44;100.00;96547.09;5028911;28;105456;-63
2023/03/20 04:42:59;;;;;;;5.17;4.67;;;;;;;9.43;100.00;96547.34;5028328;28;104693;-63
2023/03/20 04:45:26;;;;;;;6.40;5.03;;;;;;;9.49;100.00;96557.78;5032280;28;101809;-63
2023/03/20 04:47:53;;;;;;;5.90;5.30;;;;;;;9.50;100.00;96555.97;5028020;28;105257;-63
2023/03/20 04:50:23;;;;;;;7.47;5.60;;;;;;;9.49;100.00;96563.09;5028881;28;101778;-63
2023/03/20 04:53:11;;;;;;;6.30;5.47;;;;;;;9.48;100.00;96568.66;5028774;28;104958;-64
2023/03/20 04:55:38;;;;;;;5.70;5.10;;;;;;;9.48;100.00;96566.03;5028435;28;105396;-63
2023/03/20 04:58:07;;;;;;;5.73;5.23;;;;;;;9.47;100.00;96572.34;5012869;28;101871;-63
2023/03/20 05:00:34;;;;;;;5.57;5.07;;;;;;;9.44;100.00;96567.53;5008947;28;104829;-63
2023/03/20 05:03:27;;;;;;;7.37;6.67;;;;;;;9.41;100.00;96575.97;5026996;28;105436;-64
2023/03/20 05:05:54;;;;;;;49.87;31.23;;;;;;;9.39;100.00;96584.16;5032332;28;102238;-63
2023/03/20 05:08:21;;;;;;;56.13;34.23;;;;;;;9.40;100.00;96580.47;5020516;28;104872;-63
2023/03/20 05:10:49;;;;;;;36.63;24.27;;;;;;;9.38;100.00;96576.44;5026141;28;101992;-63
2023/03/20 05:13:55;;;;;;;26.60;18.70;;;;;;;9.36;100.00;96587.31;5032580;28;102111;-63
2023/03/20 05:16:40;;;;;;;17.47;12.83;;;;;;;9.35;100.00;96593.66;5029858;28;102234;-63
2023/03/20 05:19:19;;;;;;;14.30;11.00;;;;;;;9.34;100.00;96596.53;5030467;28;101870;-63
2023/03/20 05:21:56;;;;;;;10.60;8.47;;;;;;;9.33;100.00;96597.59;5030738;28;104794;-64
2023/03/20 05:25:05;;;;;;;7.50;6.80;;;;;;;9.33;100.00;96601.03;5031167;28;105510;-63
2023/03/20 05:27:47;;;;;;;6.70;6.10;;;;;;;9.28;100.00;96602.78;5033142;27;101682;-63
2023/03/20 05:30:33;;;;;;;6.53;5.80;;;;;;;9.33;100.00;96605.56;5032867;27;102554;-64
2023/03/20 05:33:13;;;;;;;8.30;7.60;;;;;;;9.29;100.00;96607.88;5032581;27;102576;-64
2023/03/20 05:35:55;;;;;;;6.07;5.57;;;;;;;9.28;100.00;96610.75;5031885;28;105604;-64
2023/03/20 05:38:51;;;;;;;6.40;5.80;;;;;;;9.19;100.00;96607.69;5027634;27;102569;-64
2023/03/20 05:41:36;;;;;;;6.80;6.20;;;;;;;9.17;100.00;96614.25;5030199;28;101828;-63
2023/03/20 05:44:24;;;;;;;6.53;6.00;;;;;;;9.15;100.00;96614.47;5031948;28;103188;-64
2023/03/20 05:47:13;;;;;;;6.80;5.83;;;;;;;9.14;100.00;96620.03;5020072;27;102510;-64
2023/03/20 05:49:51;;;;;;;7.07;6.37;;;;;;;9.16;100.00;96623.25;5029830;27;101624;-63
2023/03/20 05:52:32;;;;;;;6.90;6.23;;;;;;;9.11;100.00;96618.63;5031578;28;105801;-62
2023/03/20 05:55:25;;;;;;;6.43;5.83;;;;;;;9.15;100.00;96625.09;5034281;28;103657;-62
2023/03/20 05:58:15;;;;;;;7.33;5.90;;;;;;;9.16;100.00;96639.97;5032595;27;103389;-62
2023/03/20 06:00:42;;;;;;;6.00;5.50;;;;;;;9.16;100.00;96631.22;5031564;27;102615;-62
2023/03/20 06:03:29;;;;;;;5.47;4.90;;;;;;;9.18;100.00;96631.78;5029032;28;101724;-62
2023/03/20 06:06:05;;;;;;;5.87;5.40;;;;;;;9.16;100.00;96639.97;5030669;28;105288;-62
2023/03/20 06:08:32;;;;;;;6.50;5.13;;;;;;;9.15;100.00;96633.06;5030133;28;103978;-62
2023/03/20 06:11:00;;;;;;;5.40;4.90;;;;;;;9.15;100.00;96638.38;5030630;27;101894;-62
2023/03/20 06:13:28;;;;;;;5.20;4.80;;;;;;;9.21;100.00;96636.63;5030445;28;104891;-62
2023/03/20 06:15:55;;;;;;;5.13;4.63;;;;;;;9.19;100.00;96647.47;5030230;28;105523;-62
2023/03/20 06:18:23;;;;;;;6.80;4.43;;;;;;;9.17;100.00;96641.56;5033934;28;101833;-62
2023/03/20 06:20:57;;;;;;;6.03;4.23;;;;;;;9.27;100.00;96643.66;5030281;28;105516;-62
2023/03/20 06:23:25;;;;;;;5.70;5.10;;;;;;;9.29;100.00;96644.22;5030606;28;102101;-62
2023/03/20 06:25:52;;;;;;;5.70;5.10;;;;;;;9.24;100.00;96646.75;5030549;28;104920;-62
2023/03/20 06:28:20;;;;;;;7.40;5.07;;;;;;;9.20;100.00;96650.91;5030023;28;104989;-62
2023/03/20 06:30:52;;;;;;;6.43;5.20;;;;;;;9.19;100.00;96650.13;5030208;28;101966;-62
2023/03/20 06:33:20;;;;;;;5.83;4.63;;;;;;;9.18;100.00;96653.81;5017639;28;105605;-62
2023/03/20 06:36:01;;;;;;;5.27;4.87;;;;;;;9.15;100.00;96664.06;5009483;28;105447;-62
2023/03/20 06:38:30;;;;;;;5.67;4.73;;;;;;;9.22;100.00;96656.81;5009779;28;101829;-62
2023/03/20 06:40:59;;;;;;;5.07;4.57;;;;;;;9.22;100.00;96664.78;5012585;28;104789;-62
2023/03/20 06:43:27;;;;;;;5.70;5.20;;;;;;;9.26;100.00;96664.06;5009945;28;101971;-62
2023/03/20 06:45:55;;;;;;;4.87;4.47;;;;;;;9.24;100.00;96668.00;5011134;28;102492;-62
2023/03/20 06:48:25;;;;;;;5.47;4.97;;;;;;;9.11;100.00;96669.03;5009374;28;104989;-62
2023/03/20 06:50:53;;;;;;;5.70;5.07;;;;;;;9.05;100.00;96674.50;5009649;28;101864;-62
2023/03/20 06:53:24;;;;;;;5.30;4.87;;;;;;;9.04;100.00;96673.69;5009659;28;105649;-62
2023/03/20 06:56:19;;;;;;;5.30;4.80;;;;;;;9.10;100.00;96675.41;5009478;28;103924;-62
2023/03/20 06:58:46;;;;;;;4.90;4.43;;;;;;;9.15;100.00;96682.66;5007726;28;102096;-62
2023/03/20 07:01:16;;;;;;;4.53;4.13;;;;;;;9.17;100.00;96688.53;5009133;28;102507;-62
2023/03/20 07:03:44;;;;;;;4.50;4.10;;;;;;;9.13;100.00;96682.91;5010716;28;105291;-62
2023/03/20 07:06:12;;;;;;;4.87;4.53;;;;;;;9.23;100.00;96687.59;5008002;28;105101;-62
2023/03/20 07:08:41;;;;;;;5.77;5.33;;;;;;;9.27;100.00;96680.81;5007878;28;106034;-62
2023/03/20 07:11:08;;;;;;;5.80;5.30;;;;;;;9.33;100.00;96682.50;5009573;28;101740;-62
2023/03/20 07:13:35;;;;;;;13.77;11.27;;;;;;;9.38;100.00;96682.63;5008261;28;105316;-62
2023/03/20 07:16:12;;;;;;;13.50;10.97;;;;;;;9.36;100.00;96679.38;5007869;28;104919;-62
2023/03/20 07:18:41;;;;;;;5.50;4.93;;;;;;;9.32;100.00;96691.53;5008078;28;102324;-62
2023/03/20 07:21:08;;;;;;;4.60;4.03;;;;;;;9.36;100.00;96690.81;5009532;28;104774;-62
2023/03/20 07:23:35;;;;;;;4.17;3.80;;;;;;;9.28;100.00;96695.69;5007770;28;105955;-62
2023/03/20 07:26:05;;;;;;;4.07;3.40;;;;;;;9.17;100.00;96688.53;5012479;28;101866;-62
2023/03/20 07:28:33;;;;;;;4.33;3.93;;;;;;;9.15;100.00;96699.38;5008724;28;105223;-62
2023/03/20 07:31:19;;;;;;;4.33;3.90;;;;;;;9.09;100.00;96696.84;5009194;28;101864;-62
2023/03/20 07:33:48;;;;;;;4.70;4.30;;;;;;;9.06;100.00;96699.97;5009254;28;105005;-62
2023/03/20 07:36:15;;;;;;;5.97;5.37;;;;;;;9.04;100.00;96696.75;5009014;28;102475;-62
2023/03/20 07:38:43;;;;;;;7.00;6.40;;;;;;;9.07;100.00;96702.41;5008964;28;102012;-62
2023/03/20 07:41:12;;;;;;;7.30;6.00;;;;;;;9.16;100.00;96700.22;5009169;28;105709;-62
2023/03/20 07:43:44;;;;;;;6.10;5.43;;;;;;;9.03;100.00;96701.25;5008234;28;103901;-62
2023/03/20 07:46:29;;;;;;;7.83;6.53;;;;;;;9.24;100.00;96705.13;5007411;28;102095;-62
2023/03/20 07:48:57;;;;;;;8.20;6.63;;;;;;;9.37;100.00;96710.19;5011871;28;104421;-62
2023/03/20 07:51:24;;;;;;;6.57;5.60;;;;;;;9.37;100.00;96711.00;5009301;28;101927;-62
2023/03/20 07:53:52;;;;;;;7.43;6.73;;;;;;;9.42;100.00;96715.59;5008668;28;105301;-62
2023/03/20 07:56:21;;;;;;;6.33;5.47;;;;;;;9.46;100.00;96714.91;5008087;28;105509;-62
2023/03/20 07:58:48;;;;;;;5.17;4.63;;;;;;;9.40;100.00;96726.47;5008431;28;102025;-62
2023/03/20 08:01:15;;;;;;;5.03;4.60;;;;;;;9.32;100.00;96712.75;5009040;28;102368;-62
2023/03/20 08:03:42;;;;;;;8.13;5.13;;;;;;;9.34;100.00;96713.31;5039987;27;105928;-62
2023/03/20 08:06:09;;;;;;;5.33;4.83;;;;;;;9.48;100.00;96717.31;5008593;28;101754;-62
2023/03/20 08:08:36;;;;;;;5.03;4.53;;;;;;;9.54;100.00;96714.50;5009484;28;105383;-62
2023/03/20 08:11:03;;;;;;;4.90;4.50;;;;;;;9.55;100.00;96712.69;5040871;27;102439;-62
2023/03/20 08:13:32;;;;;;;7.90;4.90;;;;;;;9.61;100.00;96719.69;5008443;28;102854;-62
2023/03/20 08:15:58;;;;;;;4.80;4.30;;;;;;;9.69;100.00;96720.13;5007749;28;102809;-62
2023/03/20 08:18:25;;;;;;;5.73;4.87;;;;;;;9.73;100.00;96723.13;5007591;28;102414;-62
2023/03/20 08:20:52;;;;;;;5.27;4.77;;;;;;;9.77;100.00;96721.59;5006632;28;105730;-62
2023/03/20 08:23:19;;;;;;;5.90;5.00;;;;;;;9.97;100.00;96719.34;5039642;27;105512;-62
2023/03/20 08:25:48;;;;;;;6.73;5.90;;;;;;;9.98;100.00;96721.72;5008436;28;101877;-62
2023/03/20 08:28:14;;;;;;;5.77;5.20;;;;;;;10.02;100.00;96730.03;5010123;28;102421;-62
2023/03/20 08:30:43;;;;;;;6.20;4.93;;;;;;;9.79;100.00;96728.28;5012641;28;102503;-62
2023/03/20 08:33:10;;;;;;;5.77;5.00;;;;;;;9.82;100.00;96730.47;5010044;28;102326;-62
2023/03/20 08:35:37;;;;;;;5.20;4.63;;;;;;;9.96;100.00;96730.97;5011536;28;102470;-62
2023/03/20 08:38:04;;;;;;;5.93;5.27;;;;;;;10.14;100.00;96728.19;5013505;28;101819;-62
2023/03/20 08:40:31;;;;;;;5.10;4.60;;;;;;;10.10;100.00;96722.53;5046025;27;105727;-62
2023/03/20 08:42:58;;;;;;;7.90;4.87;;;;;;;10.15;100.00;96719.16;5045297;27;105994;-62
2023/03/20 08:45:25;;;;;;;4.67;4.17;;;;;;;10.24;100.00;96720.38;5013244;28;101847;-62
2023/03/20 08:47:54;;;;;;;5.57;4.23;;;;;;;10.20;100.00;96721.91;5011973;28;105068;-62
2023/03/20 08:50:21;;;;;;;4.20;3.80;;;;;;;10.14;100.00;96720.19;5012826;28;102770;-62
2023/03/20 08:52:48;;;;;;;5.23;3.83;;;;;;;10.25;100.00;96722.78;5015410;28;101910;-62
2023/03/20 08:55:16;;;;;;;4.03;3.63;;;;;;;10.34;100.00;96717.88;5012863;28;102475;-62
2023/03/20 08:57:42;;;;;;;5.30;4.10;;;;;;;10.49;100.00;96720.78;5011796;28;101874;-62
2023/03/20 09:00:12;;;;;;;4.40;4.00;;;;;;;10.64;100.00;96718.38;5013126;28;102239;-62
2023/03/20 09:02:39;;;;;;;4.00;3.60;;;;;;;10.59;100.00;96721.78;5011059;28;105600;-62
2023/03/20 09:05:10;;;;;;;3.60;3.30;;;;;;;10.71;100.00;96714.50;5013084;28;101957;-62
2023/03/20 09:07:37;;;;;;;3.57;3.10;;;;;;;10.87;100.00;96715.53;5013236;28;102363;-62
2023/03/20 09:10:04;;;;;;;3.77;3.27;;;;;;;11.07;100.00;96713.16;5044757;27;105404;-62
2023/03/20 09:12:31;;;;;;;6.40;4.40;;;;;;;11.18;100.00;96715.72;5012865;28;101804;-62
2023/03/20 09:14:59;;;;;;;3.70;3.40;;;;;;;11.36;100.00;96717.28;5015914;28;102350;-62
2023/03/20 09:17:26;;;;;;;6.03;4.07;;;;;;;11.42;100.00;96708.31;5011232;28;102035;-62
2023/03/20 09:19:53;;;;;;;4.47;3.40;;;;;;;11.50;100.00;96715.88;5013117;28;102810;-62
2023/03/20 09:22:21;;;;;;;4.33;3.90;;;;;;;11.72;100.00;96706.84;5011873;28;102573;-62
2023/03/20 09:24:48;;;;;;;4.30;3.90;;;;;;;11.87;100.00;96700.84;5012794;28;101812;-62
2023/03/20 09:27:15;;;;;;;4.13;3.30;;;;;;;11.92;100.00;96695.59;5012936;28;102952;-62
2023/03/20 09:29:42;;;;;;;3.43;2.93;;;;;;;11.75;100.00;96700.19;5044586;27;105796;-62
2023/03/20 09:32:11;;;;;;;5.63;3.70;;;;;;;11.94;100.00;96698.81;5012408;28;101810;-62
2023/03/20 09:34:38;;;;;;;3.67;2.97;;;;;;;11.99;100.00;96698.88;5012504;28;102382;-62
2023/03/20 09:37:05;;;;;;;4.67;3.00;;;;;;;11.75;100.00;96689.53;5047874;27;105473;-62
2023/03/20 09:39:34;;;;;;;3.23;2.93;;;;;;;11.93;100.00;96683.91;5012751;28;102298;-62
2023/03/20 09:42:14;;;;;;;2.73;2.27;;;;;;;11.98;100.00;96687.41;5010492;28;105628;-62
2023/03/20 09:44:52;;;;;;;2.53;2.30;;;;;;;12.24;100.00;96685.78;5011161;28;101856;-62
2023/03/20 09:47:25;;;;;;;2.70;2.50;;;;;;;12.31;100.00;96678.41;5011892;28;102532;-62
2023/03/20 09:50:09;;;;;;;2.67;2.47;;;;;;;12.62;100.00;96685.56;5044230;27;105686;-62
2023/03/20 09:52:40;;;;;;;1.80;1.70;;;;;;;12.65;100.00;96669.84;5011165;28;102418;-62
2023/03/20 09:55:14;;;;;;;1.83;1.73;;;;;;;12.54;100.00;96673.50;5011227;28;105227;-62
2023/03/20 09:57:45;;;;;;;1.30;1.20;;;;;;;12.36;100.00;96671.22;5011579;28;102628;-62
2023/03/20 10:00:15;;;;;;;1.47;1.37;;;;;;;12.12;100.00;96664.63;5014421;28;102199;-62
2023/03/20 10:02:48;;;;;;;1.10;1.10;;;;;;;12.46;100.00;96659.81;5011313;28;103923;-62
2023/03/20 10:05:22;;;;;;;1.20;1.20;;;;;;;12.34;100.00;96664.53;5010573;28;101827;-62
2023/03/20 10:07:49;;;;;;;1.10;1.10;;;;;;;12.42;100.00;96658.75;5044568;27;104059;-62
2023/03/20 10:10:19;;;;;;;1.10;1.10;;;;;;;12.30;100.00;96666.09;5011526;28;102743;-62
2023/03/20 10:13:01;;;;;;;1.57;1.30;;;;;;;12.47;100.00;96662.25;5010835;28;102024;-62
2023/03/20 10:15:38;;;;;;;2.20;1.20;;;;;;;12.58;100.00;96655.09;5044798;27;105316;-62
2023/03/20 10:18:16;;;;;;;1.53;0.90;;;;;;;12.62;100.00;96659.69;5010992;28;103159;-62
2023/03/20 10:20:51;;;;;;;1.07;1.07;;;;;;;13.19;100.00;96649.13;5015426;28;101812;-62
2023/03/20 10:23:25;;;;;;;1.80;1.03;;;;;;;13.56;100.00;96650.59;5043665;27;105900;-62
2023/03/20 10:25:58;;;;;;;1.10;1.03;;;;;;;13.56;100.00;96650.59;5011944;28;101913;-62
2023/03/20 10:28:34;;;;;;;2.27;1.23;;;;;;;13.01;100.00;96650.38;5010409;28;105717;-62
2023/03/20 10:31:13;;;;;;;0.97;0.97;;;;;;;13.20;100.00;96656.06;5043369;27;105578;-62
2023/03/20 10:33:55;;;;;;;0.90;0.90;;;;;;;13.75;100.00;96643.72;5011873;28;102078;-62
2023/03/20 10:36:40;;;;;;;1.13;1.03;;;;;;;13.89;100.00;96649.38;5044224;27;105708;-62
2023/03/20 10:39:14;;;;;;;0.93;0.93;;;;;;;12.86;100.00;96644.91;5011099;28;102594;-62
2023/03/20 10:41:51;;;;;;;0.80;0.80;;;;;;;12.75;100.00;96642.44;5011998;28;101803;-62
2023/03/20 10:44:25;;;;;;;0.90;0.90;;;;;;;12.41;100.00;96646.44;5014875;28;101960;-62
2023/03/20 10:46:55;;;;;;;1.20;1.10;;;;;;;12.44;100.00;96646.75;5010012;28;102002;-62
2023/03/20 10:49:31;;;;;;;0.97;0.97;;;;;;;12.26;100.00;96644.47;5011326;28;102397;-62
2023/03/20 10:52:03;;;;;;;1.30;1.20;;;;;;;12.25;100.00;96642.88;5011263;28;102490;-62
2023/03/20 10:54:34;;;;;;;1.10;1.10;;;;;;;12.50;100.00;96634.25;5010125;28;101848;-62
2023/03/20 10:57:05;;;;;;;2.10;1.00;;;;;;;12.48;100.00;96637.16;5011409;28;102302;-62
2023/03/20 10:59:38;;;;;;;1.00;1.00;;;;;;;12.68;100.00;96629.31;5041841;27;105437;-62
2023/03/20 11:02:10;;;;;;;1.37;0.90;;;;;;;12.67;100.00;96625.03;5009738;28;102240;-62
2023/03/20 11:04:38;;;;;;;1.10;1.00;;;;;;;12.65;100.00;96626.38;5010053;28;105285;-62
2023/03/20 11:07:15;;;;;;;1.30;0.90;;;;;;;12.81;100.00;96622.72;5014112;28;102864;-62
2023/03/20 11:09:42;;;;;;;0.90;0.90;;;;;;;12.65;100.00;96621.03;5009959;28;105266;-62
2023/03/20 11:12:17;;;;;;;0.70;0.70;;;;;;;12.58;100.00;96620.44;5043046;27;105479;-62
2023/03/20 11:14:44;;;;;;;1.23;0.90;;;;;;;12.93;100.00;96618.78;5011108;28;101750;-62
2023/03/20 11:17:12;;;;;;;0.90;0.90;;;;;;;13.00;100.00;96623.91;5009534;28;105646;-62
2023/03/20 11:19:40;;;;;;;0.97;0.80;;;;;;;12.90;100.00;96615.81;5010037;28;102605;-62
2023/03/20 11:22:09;;;;;;;1.07;1.00;;;;;;;13.00;100.00;96618.56;5010664;28;101855;-62
2023/03/20 11:24:40;;;;;;;0.80;0.80;;;;;;;13.05;100.00;96615.94;5010946;28;102295;-62
2023/03/20 11:27:10;;;;;;;1.00;1.00;;;;;;;12.90;100.00;96616.63;5008884;28;105705;-62
2023/03/20 11:29:40;;;;;;;1.20;1.20;;;;;;;12.98;100.00;96612.72;5046624;27;102060;-62
2023/03/20 11:32:17;;;;;;;0.90;0.90;;;;;;;13.07;100.00;96621.81;5010015;28;103153;-62
2023/03/20 11:34:44;;;;;;;1.07;0.80;;;;;;;12.60;100.00;96618.31;5009487;28;102002;-62
2023/03/20 11:37:24;;;;;;;0.67;0.67;;;;;;;12.63;100.00;96615.94;5010680;28;102917;-62
2023/03/20 11:39:58;;;;;;;0.80;0.80;;;;;;;12.68;100.00;96615.16;5010127;28;102213;-62
2023/03/20 11:42:26;;;;;;;0.90;0.90;;;;;;;12.87;100.00;96617.13;5010753;28;101806;-62
2023/03/20 11:45:01;;;;;;;0.80;0.80;;;;;;;12.98;100.00;96615.38;5042784;27;105398;-62
2023/03/20 11:47:32;;;;;;;0.80;0.80;;;;;;;12.81;100.00;96610.16;5009973;28;102603;-62